createdAt,value
2023-02-21T00:00:23.180Z,8.87
2023-02-21T00:05:44.898Z,7.17
2023-02-21T00:11:05.740Z,6.10
2023-02-21T00:16:26.032Z,7.37
2023-02-21T00:21:48.384Z,6.67
2023-02-21T00:27:08.734Z,5.77
2023-02-21T00:32:29.381Z,4.80
2023-02-21T00:37:51.401Z,5.10
2023-02-21T00:43:11.714Z,4.23
2023-02-21T00:48:32.386Z,4.67
2023-02-21T00:53:54.303Z,3.67
2023-02-21T00:59:15.084Z,3.40
2023-02-21T01:04:35.703Z,4.40
2023-02-21T01:09:57.558Z,5.70
2023-02-21T01:15:18.435Z,3.80
2023-02-21T01:20:39.055Z,3.27
2023-02-21T01:26:00.982Z,4.27
2023-02-21T01:31:21.429Z,3.70
2023-02-21T01:36:42.436Z,4.90
2023-02-21T01:42:04.669Z,4.13
2023-02-21T01:47:29.419Z,2.90
2023-02-21T01:52:50.427Z,3.77
2023-02-21T01:58:13.600Z,3.17
2023-02-21T02:03:37.080Z,3.00
2023-02-21T02:08:57.458Z,4.07
2023-02-21T02:14:18.403Z,3.73
2023-02-21T02:19:58.198Z,2.43
2023-02-21T02:25:19.475Z,3.17
2023-02-21T02:30:59.565Z,2.77
2023-02-21T02:36:09.381Z,2.77
2023-02-21T02:41:17.186Z,2.90
2023-02-21T02:46:24.635Z,2.53
2023-02-21T02:51:29.872Z,3.00
2023-02-21T02:56:35.291Z,3.40
2023-02-21T03:01:57.061Z,2.40
2023-02-21T03:07:08.704Z,2.83
2023-02-21T03:12:19.238Z,2.47
2023-02-21T03:17:25.931Z,2.47
2023-02-21T03:22:32.274Z,2.47
2023-02-21T03:27:36.853Z,3.70
2023-02-21T03:32:44.165Z,2.30
2023-02-21T03:37:52.409Z,3.23
2023-02-21T03:42:57.356Z,2.63
2023-02-21T03:48:00.498Z,2.30
2023-02-21T03:53:05.226Z,2.37
2023-02-21T03:58:08.302Z,2.80
2023-02-21T04:03:11.802Z,2.43
2023-02-21T04:08:16.452Z,3.50
2023-02-21T04:13:21.279Z,3.63
2023-02-21T04:18:24.440Z,2.47
2023-02-21T04:23:28.904Z,3.07
2023-02-21T04:28:32.019Z,2.90
2023-02-21T04:33:35.143Z,2.80
2023-02-21T04:38:39.582Z,3.53
2023-02-21T04:43:44.038Z,3.10
2023-02-21T04:48:49.358Z,5.20
2023-02-21T04:53:55.481Z,3.47
2023-02-21T04:58:59.012Z,4.53
2023-02-21T05:04:02.761Z,3.13
2023-02-21T05:09:07.297Z,2.57
2023-02-21T05:14:10.929Z,3.90
2023-02-21T05:19:14.091Z,3.67
2023-02-21T05:24:18.590Z,2.93
2023-02-21T05:29:21.878Z,2.77
2023-02-21T05:34:25.080Z,2.80
2023-02-21T05:39:29.569Z,2.47
2023-02-21T05:44:32.667Z,2.57
2023-02-21T05:49:38.872Z,3.23
2023-02-21T05:54:43.432Z,4.10
2023-02-21T05:59:48.191Z,3.90
2023-02-21T06:04:51.307Z,3.80
2023-02-21T06:09:55.775Z,3.77
2023-02-21T06:14:59.076Z,4.83
2023-02-21T06:20:07.816Z,4.50
2023-02-21T06:25:13.040Z,6.00
2023-02-21T06:30:16.283Z,5.43
2023-02-21T06:35:19.647Z,6.27
2023-02-21T06:40:24.144Z,4.70
2023-02-21T06:45:27.302Z,4.50
2023-02-21T06:50:31.456Z,3.90
2023-02-21T06:55:35.918Z,4.20
2023-02-21T07:00:38.988Z,4.30
2023-02-21T07:05:42.092Z,4.60
2023-02-21T07:10:46.762Z,4.63
2023-02-21T07:15:49.904Z,5.73
2023-02-21T07:20:52.984Z,4.43
2023-02-21T07:25:57.452Z,4.20
2023-02-21T07:31:00.638Z,3.33
2023-02-21T07:36:03.731Z,3.67
2023-02-21T07:41:08.302Z,4.67
2023-02-21T07:46:12.340Z,3.73
2023-02-21T07:51:16.105Z,4.17
2023-02-21T07:56:20.793Z,5.00
2023-02-21T08:01:25.683Z,5.73
2023-02-21T08:06:28.908Z,3.60
2023-02-21T08:11:34.222Z,4.13
2023-02-21T08:16:37.564Z,3.50
2023-02-21T08:21:45.843Z,4.50
2023-02-21T08:26:50.521Z,3.73
2023-02-21T08:31:53.621Z,4.73
2023-02-21T08:36:57.434Z,4.43
2023-02-21T08:42:01.987Z,4.50
2023-02-21T08:47:05.118Z,4.50
2023-02-21T08:52:08.655Z,5.67
2023-02-21T08:57:13.241Z,5.03
2023-02-21T09:02:17.719Z,5.30
2023-02-21T09:07:23.102Z,3.93
2023-02-21T09:12:27.630Z,2.97
2023-02-21T09:17:33.807Z,3.13
2023-02-21T09:22:36.949Z,4.63
2023-02-21T09:27:43.706Z,3.30
2023-02-21T09:32:46.868Z,2.57
2023-02-21T09:37:50.036Z,3.20
2023-02-21T09:42:56.806Z,2.70
2023-02-21T09:48:03.019Z,5.17
2023-02-21T09:53:06.254Z,4.23
2023-02-21T09:58:14.317Z,3.73
2023-02-21T10:03:47.035Z,5.10
2023-02-21T10:08:57.832Z,3.43
2023-02-21T10:14:12.014Z,3.30
2023-02-21T10:19:20.935Z,3.37
2023-02-21T10:24:25.932Z,3.53
2023-02-21T10:29:39.327Z,4.20
2023-02-21T10:34:47.225Z,3.97
2023-02-21T10:39:53.973Z,4.20
2023-02-21T10:44:59.905Z,3.57
2023-02-21T10:50:06.091Z,3.37
2023-02-21T10:55:31.445Z,3.63
2023-02-21T11:00:38.680Z,2.63
2023-02-21T11:05:41.978Z,2.97
2023-02-21T11:10:45.913Z,3.70
2023-02-21T11:16:08.169Z,3.20
2023-02-21T11:21:16.878Z,3.00
2023-02-21T11:26:20.659Z,4.10
2023-02-21T11:31:30.152Z,3.40
2023-02-21T11:36:34.962Z,2.97
2023-02-21T11:41:45.965Z,2.60
2023-02-21T11:46:54.737Z,2.80
2023-02-21T11:52:01.308Z,4.57
2023-02-21T11:57:10.230Z,3.97
2023-02-21T12:02:51.989Z,3.10
2023-02-21T12:08:38.739Z,3.20
2023-02-21T12:13:51.248Z,2.63
2023-02-21T12:19:09.760Z,2.60
2023-02-21T12:24:27.739Z,2.43
2023-02-21T12:29:43.341Z,2.50
2023-02-21T12:35:22.069Z,2.30
2023-02-21T12:40:35.867Z,2.50
2023-02-21T12:45:50.671Z,2.70
2023-02-21T12:50:59.333Z,2.10
2023-02-21T12:56:10.349Z,2.50
2023-02-21T13:01:20.836Z,2.00
2023-02-21T13:06:31.519Z,2.20
2023-02-21T13:11:43.105Z,2.93
2023-02-21T13:16:46.794Z,2.00
2023-02-21T13:22:03.478Z,2.50
2023-02-21T13:27:48.959Z,2.40
2023-02-21T13:32:55.435Z,2.37
2023-02-21T13:38:00.249Z,3.20
2023-02-21T13:43:11.296Z,2.30
2023-02-21T13:48:32.031Z,2.97
2023-02-21T13:54:10.142Z,2.57
2023-02-21T13:59:34.166Z,2.43
2023-02-21T14:05:03.277Z,1.83
2023-02-21T14:10:21.123Z,2.40
2023-02-21T14:15:42.649Z,2.00
2023-02-21T14:20:50.070Z,1.80
2023-02-21T14:26:00.150Z,2.33
2023-02-21T14:31:05.204Z,1.70
2023-02-21T14:36:15.032Z,1.80
2023-02-21T14:41:37.681Z,1.90
2023-02-21T14:47:14.068Z,1.67
2023-02-21T14:53:06.721Z,1.60
2023-02-21T14:58:54.458Z,3.43
2023-02-21T15:04:06.283Z,2.70
2023-02-21T15:09:13.905Z,1.80
2023-02-21T15:14:25.703Z,1.67
2023-02-21T15:19:32.921Z,1.50
2023-02-21T15:24:36.064Z,1.97
2023-02-21T15:29:39.335Z,2.77
2023-02-21T15:34:46.556Z,3.10
2023-02-21T15:39:55.412Z,1.80
2023-02-21T15:45:02.061Z,2.03
2023-02-21T15:50:13.893Z,2.33
2023-02-21T15:55:28.728Z,2.50
2023-02-21T16:00:33.573Z,2.20
2023-02-21T16:05:38.206Z,2.60
2023-02-21T16:10:41.893Z,1.20
2023-02-21T16:15:45.031Z,1.73
2023-02-21T16:21:00.605Z,3.13
2023-02-21T16:26:20.956Z,1.20
2023-02-21T16:31:28.992Z,2.93
2023-02-21T16:36:35.152Z,1.77
2023-02-21T16:41:38.296Z,2.37
2023-02-21T16:46:41.781Z,4.33
2023-02-21T16:51:46.306Z,2.10
2023-02-21T16:56:52.480Z,1.83
2023-02-21T17:01:55.629Z,2.17
2023-02-21T17:07:03.434Z,6.07
2023-02-21T17:12:07.037Z,8.97
2023-02-21T17:17:10.197Z,9.43
2023-02-21T17:22:14.682Z,11.30
2023-02-21T17:27:17.797Z,10.73
2023-02-21T17:32:20.948Z,10.43
2023-02-21T17:37:25.411Z,7.83
2023-02-21T17:42:28.514Z,6.40
2023-02-21T17:47:31.575Z,7.03
2023-02-21T17:52:36.095Z,6.90
2023-02-21T17:57:40.717Z,7.07
2023-02-21T18:02:43.878Z,6.63
2023-02-21T18:07:49.944Z,5.40
2023-02-21T18:12:53.544Z,5.10
2023-02-21T18:17:56.703Z,3.97
2023-02-21T18:23:03.236Z,4.97
2023-02-21T18:28:06.350Z,5.73
2023-02-21T18:33:09.476Z,4.90
2023-02-21T18:38:16.004Z,7.00
2023-02-21T18:43:21.427Z,7.43
2023-02-21T18:48:26.086Z,8.93
2023-02-21T18:53:30.669Z,9.00
2023-02-21T18:58:33.775Z,14.00
2023-02-21T19:03:36.897Z,11.97
2023-02-21T19:08:41.443Z,15.67
2023-02-21T19:13:47.291Z,12.53
2023-02-21T19:18:51.471Z,13.17
2023-02-21T19:23:55.926Z,12.23
2023-02-21T19:28:59.194Z,15.43
2023-02-21T19:34:02.316Z,11.80
2023-02-21T19:39:07.204Z,13.93
2023-02-21T19:44:10.319Z,14.70
2023-02-21T19:49:17.970Z,14.70
2023-02-21T19:54:26.990Z,14.87
2023-02-21T19:59:30.063Z,10.50
2023-02-21T20:04:33.763Z,12.03
2023-02-21T20:09:38.480Z,9.10
2023-02-21T20:14:46.005Z,8.33
2023-02-21T20:19:49.137Z,8.30
2023-02-21T20:24:53.635Z,9.13
2023-02-21T20:29:56.781Z,7.60
2023-02-21T20:34:59.888Z,8.27
2023-02-21T20:40:06.213Z,11.43
2023-02-21T20:45:11.516Z,7.80
2023-02-21T20:50:14.674Z,9.37
2023-02-21T20:55:22.271Z,8.47
2023-02-21T21:00:30.380Z,8.93
2023-02-21T21:05:33.754Z,9.50
2023-02-21T21:10:38.378Z,7.40
2023-02-21T21:15:42.391Z,9.43
2023-02-21T21:20:45.533Z,12.27
2023-02-21T21:25:50.006Z,12.17
2023-02-21T21:30:53.101Z,12.23
2023-02-21T21:35:58.621Z,13.63
2023-02-21T21:41:13.228Z,11.13
2023-02-21T21:46:16.429Z,10.53
2023-02-21T21:51:19.608Z,12.07
2023-02-21T21:56:27.305Z,9.43
2023-02-21T22:01:31.011Z,6.60
2023-02-21T22:06:34.096Z,6.83
2023-02-21T22:11:38.540Z,5.17
2023-02-21T22:16:43.208Z,6.03
2023-02-21T22:21:47.706Z,7.50
2023-02-21T22:26:53.166Z,7.00
2023-02-21T22:31:56.311Z,7.20
2023-02-21T22:36:59.638Z,7.17
2023-02-21T22:42:08.936Z,5.53
2023-02-21T22:47:12.473Z,6.27
2023-02-21T22:52:15.739Z,9.13
2023-02-21T22:57:20.196Z,6.00
2023-02-21T23:02:23.486Z,6.70
2023-02-21T23:07:26.750Z,4.57
2023-02-21T23:12:31.325Z,4.57
2023-02-21T23:17:34.471Z,4.17
2023-02-21T23:22:37.535Z,3.93
2023-02-21T23:27:41.972Z,4.13
2023-02-21T23:32:45.646Z,6.27
2023-02-21T23:37:49.197Z,4.77
2023-02-21T23:42:55.889Z,4.30
2023-02-21T23:47:58.971Z,4.37
2023-02-21T23:53:02.475Z,4.40
2023-02-21T23:58:10.575Z,5.13
